sensor_id;sensor_type;location;lat;lon;timestamp;pressure;altitude;pressure_sealevel;temperature;humidity
64876;BME280;51369;49.862;9.908;2024-03-02T00:01:07;97212.09;;;6.73;82.29
64876;BME280;51369;49.862;9.908;2024-03-02T00:03:32;97209.53;;;6.70;82.76
64876;BME280;51369;49.862;9.908;2024-03-02T00:05:58;97201.50;;;6.70;82.93
64876;BME280;51369;49.862;9.908;2024-03-02T00:08:25;97204.97;;;6.72;83.24
64876;BME280;51369;49.862;9.908;2024-03-02T00:10:57;97198.75;;;6.71;83.12
64876;BME280;51369;49.862;9.908;2024-03-02T00:13:23;97196.94;;;6.72;83.08
64876;BME280;51369;49.862;9.908;2024-03-02T00:15:54;97198.66;;;6.73;83.42
64876;BME280;51369;49.862;9.908;2024-03-02T00:18:40;97201.34;;;6.73;83.50
64876;BME280;51369;49.862;9.908;2024-03-02T00:21:06;97195.13;;;6.72;83.33
64876;BME280;51369;49.862;9.908;2024-03-02T00:23:35;97196.94;;;6.72;82.75
64876;BME280;51369;49.862;9.908;2024-03-02T00:26:01;97193.53;;;6.68;82.99
64876;BME280;51369;49.862;9.908;2024-03-02T00:28:29;97204.31;;;6.67;82.57
64876;BME280;51369;49.862;9.908;2024-03-02T00:31:02;97207.94;;;6.66;83.31
64876;BME280;51369;49.862;9.908;2024-03-02T00:33:37;97212.44;;;6.65;83.13
64876;BME280;51369;49.862;9.908;2024-03-02T00:36:06;97210.56;;;6.67;83.38
64876;BME280;51369;49.862;9.908;2024-03-02T00:38:32;97210.47;;;6.69;83.23
64876;BME280;51369;49.862;9.908;2024-03-02T00:41:00;97212.94;;;6.73;83.51
64876;BME280;51369;49.862;9.908;2024-03-02T00:43:41;97218.25;;;6.75;83.59
64876;BME280;51369;49.862;9.908;2024-03-02T00:46:07;97216.28;;;6.78;83.52
64876;BME280;51369;49.862;9.908;2024-03-02T00:48:33;97217.09;;;6.80;83.79
64876;BME280;51369;49.862;9.908;2024-03-02T00:51:02;97226.66;;;6.86;84.05
64876;BME280;51369;49.862;9.908;2024-03-02T00:53:29;97217.53;;;6.90;84.23
64876;BME280;51369;49.862;9.908;2024-03-02T00:55:55;97213.84;;;6.93;83.62
64876;BME280;51369;49.862;9.908;2024-03-02T00:58:20;97210.91;;;6.97;84.06
64876;BME280;51369;49.862;9.908;2024-03-02T01:00:46;97204.53;;;7.00;84.48
64876;BME280;51369;49.862;9.908;2024-03-02T01:03:12;97216.13;;;7.00;83.70
64876;BME280;51369;49.862;9.908;2024-03-02T01:05:41;97211.56;;;7.02;84.05
64876;BME280;51369;49.862;9.908;2024-03-02T01:08:07;97218.69;;;7.03;83.88
64876;BME280;51369;49.862;9.908;2024-03-02T01:10:32;97222.31;;;7.02;83.44
64876;BME280;51369;49.862;9.908;2024-03-02T01:12:58;97218.03;;;6.98;83.05
64876;BME280;51369;49.862;9.908;2024-03-02T01:15:24;97221.88;;;6.93;82.72
64876;BME280;51369;49.862;9.908;2024-03-02T01:17:49;97220.22;;;6.90;82.20
64876;BME280;51369;49.862;9.908;2024-03-02T01:20:14;97223.84;;;6.89;82.97
64876;BME280;51369;49.862;9.908;2024-03-02T01:22:40;97224.66;;;6.91;83.00
64876;BME280;51369;49.862;9.908;2024-03-02T01:25:05;97224.66;;;6.91;83.50
64876;BME280;51369;49.862;9.908;2024-03-02T01:27:31;97224.72;;;6.90;82.80
64876;BME280;51369;49.862;9.908;2024-03-02T01:29:56;97216.88;;;6.85;82.33
64876;BME280;51369;49.862;9.908;2024-03-02T01:32:21;97218.75;;;6.83;82.89
64876;BME280;51369;49.862;9.908;2024-03-02T01:34:47;97220.66;;;6.81;82.57
64876;BME280;51369;49.862;9.908;2024-03-02T01:37:12;97215.34;;;6.79;82.59
64876;BME280;51369;49.862;9.908;2024-03-02T01:39:38;97220.66;;;6.81;82.67
64876;BME280;51369;49.862;9.908;2024-03-02T01:42:04;97218.69;;;6.84;83.49
64876;BME280;51369;49.862;9.908;2024-03-02T01:44:30;97220.38;;;6.87;83.66
64876;BME280;51369;49.862;9.908;2024-03-02T01:46:55;97215.78;;;6.89;83.40
64876;BME280;51369;49.862;9.908;2024-03-02T01:49:20;97218.34;;;6.92;83.85
64876;BME280;51369;49.862;9.908;2024-03-02T01:51:46;97215.47;;;6.95;83.99
64876;BME280;51369;49.862;9.908;2024-03-02T01:54:11;97197.44;;;6.99;83.60
64876;BME280;51369;49.862;9.908;2024-03-02T01:56:36;97203.50;;;7.02;83.91
64876;BME280;51369;49.862;9.908;2024-03-02T01:59:02;97201.63;;;7.04;83.46
64876;BME280;51369;49.862;9.908;2024-03-02T02:01:28;97200.69;;;7.05;83.81
64876;BME280;51369;49.862;9.908;2024-03-02T02:03:54;97199.75;;;7.06;83.51
64876;BME280;51369;49.862;9.908;2024-03-02T02:06:19;97197.13;;;7.05;83.49
64876;BME280;51369;49.862;9.908;2024-03-02T02:08:44;97197.94;;;7.07;83.68
64876;BME280;51369;49.862;9.908;2024-03-02T02:11:10;97195.25;;;7.07;83.62
64876;BME280;51369;49.862;9.908;2024-03-02T02:13:35;97189.81;;;7.08;83.59
64876;BME280;51369;49.862;9.908;2024-03-02T02:16:07;97196.13;;;7.07;83.19
64876;BME280;51369;49.862;9.908;2024-03-02T02:18:33;97190.91;;;7.04;83.20
64876;BME280;51369;49.862;9.908;2024-03-02T02:20:58;97195.53;;;7.01;83.30
64876;BME280;51369;49.862;9.908;2024-03-02T02:23:23;97187.56;;;6.99;83.38
64876;BME280;51369;49.862;9.908;2024-03-02T02:25:49;97190.25;;;6.99;83.45
64876;BME280;51369;49.862;9.908;2024-03-02T02:28:14;97186.91;;;6.94;82.55
64876;BME280;51369;49.862;9.908;2024-03-02T02:30:39;97184.34;;;6.93;82.51
64876;BME280;51369;49.862;9.908;2024-03-02T02:33:05;97192.59;;;6.88;83.00
64876;BME280;51369;49.862;9.908;2024-03-02T02:35:30;97176.63;;;6.85;82.72
64876;BME280;51369;49.862;9.908;2024-03-02T02:37:56;97185.78;;;6.81;82.62
64876;BME280;51369;49.862;9.908;2024-03-02T02:40:22;97185.84;;;6.79;82.90
64876;BME280;51369;49.862;9.908;2024-03-02T02:42:48;97185.91;;;6.78;83.19
64876;BME280;51369;49.862;9.908;2024-03-02T02:45:13;97194.09;;;6.75;82.58
64876;BME280;51369;49.862;9.908;2024-03-02T02:47:40;97186.19;;;6.72;82.85
64876;BME280;51369;49.862;9.908;2024-03-02T02:50:10;97185.53;;;6.67;82.29
64876;BME280;51369;49.862;9.908;2024-03-02T02:52:38;97191.03;;;6.64;83.08
64876;BME280;51369;49.862;9.908;2024-03-02T02:55:06;97191.19;;;6.61;82.87
64876;BME280;51369;49.862;9.908;2024-03-02T02:57:33;97180.53;;;6.59;83.05
64876;BME280;51369;49.862;9.908;2024-03-02T03:00:10;97182.34;;;6.59;83.14
64876;BME280;51369;49.862;9.908;2024-03-02T03:02:39;97182.34;;;6.59;83.52
64876;BME280;51369;49.862;9.908;2024-03-02T03:05:07;97180.66;;;6.56;83.73
64876;BME280;51369;49.862;9.908;2024-03-02T03:07:33;97179.88;;;6.54;83.47
64876;BME280;51369;49.862;9.908;2024-03-02T03:10:02;97180.88;;;6.51;83.65
64876;BME280;51369;49.862;9.908;2024-03-02T03:12:29;97171.25;;;6.47;83.97
64876;BME280;51369;49.862;9.908;2024-03-02T03:14:55;97172.25;;;6.45;83.81
64876;BME280;51369;49.862;9.908;2024-03-02T03:17:23;97183.91;;;6.44;83.97
64876;BME280;51369;49.862;9.908;2024-03-02T03:19:49;97182.31;;;6.40;83.43
64876;BME280;51369;49.862;9.908;2024-03-02T03:22:15;97180.78;;;6.34;83.21
64876;BME280;51369;49.862;9.908;2024-03-02T03:24:40;97168.59;;;6.27;83.11
64876;BME280;51369;49.862;9.908;2024-03-02T03:27:05;97177.69;;;6.23;82.96
64876;BME280;51369;49.862;9.908;2024-03-02T03:29:31;97188.63;;;6.18;82.85
64876;BME280;51369;49.862;9.908;2024-03-02T03:31:56;97189.69;;;6.14;83.60
64876;BME280;51369;49.862;9.908;2024-03-02T03:34:21;97184.47;;;6.11;83.42
64876;BME280;51369;49.862;9.908;2024-03-02T03:36:47;97181.13;;;6.06;83.41
64876;BME280;51369;49.862;9.908;2024-03-02T03:39:12;97173.97;;;6.07;83.96
64876;BME280;51369;49.862;9.908;2024-03-02T03:41:37;97174.75;;;6.09;83.78
64876;BME280;51369;49.862;9.908;2024-03-02T03:44:03;97176.56;;;6.08;83.74
64876;BME280;51369;49.862;9.908;2024-03-02T03:46:29;97179.31;;;6.07;83.94
64876;BME280;51369;49.862;9.908;2024-03-02T03:48:54;97175.84;;;6.05;83.90
64876;BME280;51369;49.862;9.908;2024-03-02T03:51:21;97172.34;;;6.03;84.40
64876;BME280;51369;49.862;9.908;2024-03-02T03:53:48;97177.78;;;6.01;84.46
64876;BME280;51369;49.862;9.908;2024-03-02T03:56:13;97184.13;;;5.99;84.01
64876;BME280;51369;49.862;9.908;2024-03-02T03:58:38;97186.16;;;5.94;83.45
64876;BME280;51369;49.862;9.908;2024-03-02T04:01:04;97192.66;;;5.86;83.93
64876;BME280;51369;49.862;9.908;2024-03-02T04:03:29;97188.50;;;5.79;83.38
64876;BME280;51369;49.862;9.908;2024-03-02T04:05:55;97191.44;;;5.73;83.96
64876;BME280;51369;49.862;9.908;2024-03-02T04:08:21;97190.72;;;5.70;83.62
64876;BME280;51369;49.862;9.908;2024-03-02T04:10:46;97198.94;;;5.65;83.41
64876;BME280;51369;49.862;9.908;2024-03-02T04:13:12;97191.16;;;5.59;83.21
64876;BME280;51369;49.862;9.908;2024-03-02T04:15:37;97186.06;;;5.53;83.58
64876;BME280;51369;49.862;9.908;2024-03-02T04:18:03;97194.41;;;5.45;83.65
64876;BME280;51369;49.862;9.908;2024-03-02T04:20:28;97198.22;;;5.40;83.06
64876;BME280;51369;49.862;9.908;2024-03-02T04:22:55;97194.97;;;5.32;83.57
64876;BME280;51369;49.862;9.908;2024-03-02T04:25:20;97197.03;;;5.25;83.07
64876;BME280;51369;49.862;9.908;2024-03-02T04:27:46;97200.91;;;5.18;83.02
64876;BME280;51369;49.862;9.908;2024-03-02T04:30:12;97200.22;;;5.13;83.68
64876;BME280;51369;49.862;9.908;2024-03-02T04:32:37;97192.38;;;5.08;83.37
64876;BME280;51369;49.862;9.908;2024-03-02T04:35:04;97201.41;;;5.06;84.06
64876;BME280;51369;49.862;9.908;2024-03-02T04:37:31;97199.59;;;5.06;84.29
64876;BME280;51369;49.862;9.908;2024-03-02T04:39:57;97195.19;;;5.05;84.74
64876;BME280;51369;49.862;9.908;2024-03-02T04:42:22;97192.50;;;5.05;84.25
64876;BME280;51369;49.862;9.908;2024-03-02T04:44:48;97195.19;;;5.05;84.41
64876;BME280;51369;49.862;9.908;2024-03-02T04:47:13;97195.97;;;5.07;85.01
64876;BME280;51369;49.862;9.908;2024-03-02T04:49:39;97202.28;;;5.06;84.64
64876;BME280;51369;49.862;9.908;2024-03-02T04:52:04;97205.06;;;5.03;84.63
64876;BME280;51369;49.862;9.908;2024-03-02T04:54:29;97205.25;;;4.99;84.92
64876;BME280;51369;49.862;9.908;2024-03-02T04:56:55;97208.09;;;4.94;83.87
64876;BME280;51369;49.862;9.908;2024-03-02T04:59:20;97207.28;;;4.92;85.02
64876;BME280;51369;49.862;9.908;2024-03-02T05:01:46;97213.56;;;4.91;84.95
64876;BME280;51369;49.862;9.908;2024-03-02T05:04:13;97211.94;;;4.87;84.77
64876;BME280;51369;49.862;9.908;2024-03-02T05:06:39;97218.34;;;4.83;84.70
64876;BME280;51369;49.862;9.908;2024-03-02T05:09:08;97217.69;;;4.76;83.78
64876;BME280;51369;49.862;9.908;2024-03-02T05:11:34;97218.63;;;4.75;83.30
64876;BME280;51369;49.862;9.908;2024-03-02T05:14:03;97221.47;;;4.71;83.58
64876;BME280;51369;49.862;9.908;2024-03-02T05:16:28;97218.00;;;4.69;83.95
64876;BME280;51369;49.862;9.908;2024-03-02T05:18:54;97229.84;;;4.62;84.24
64876;BME280;51369;49.862;9.908;2024-03-02T05:21:19;97221.13;;;4.56;84.31
64876;BME280;51369;49.862;9.908;2024-03-02T05:23:45;97215.91;;;4.53;84.14
64876;BME280;51369;49.862;9.908;2024-03-02T05:26:10;97214.25;;;4.49;84.11
64876;BME280;51369;49.862;9.908;2024-03-02T05:28:38;97223.25;;;4.47;84.84
64876;BME280;51369;49.862;9.908;2024-03-02T05:31:04;97218.16;;;4.41;84.08
64876;BME280;51369;49.862;9.908;2024-03-02T05:33:29;97230.75;;;4.37;85.00
64876;BME280;51369;49.862;9.908;2024-03-02T05:35:56;97229.97;;;4.34;83.84
64876;BME280;51369;49.862;9.908;2024-03-02T05:38:22;97235.50;;;4.29;84.43
64876;BME280;51369;49.862;9.908;2024-03-02T05:40:48;97230.25;;;4.26;84.46
64876;BME280;51369;49.862;9.908;2024-03-02T05:43:13;97227.69;;;4.23;84.23
64876;BME280;51369;49.862;9.908;2024-03-02T05:45:39;97224.25;;;4.19;84.59
64876;BME280;51369;49.862;9.908;2024-03-02T05:48:06;97219.09;;;4.15;84.46
64876;BME280;51369;49.862;9.908;2024-03-02T05:50:32;97224.47;;;4.13;84.57
64876;BME280;51369;49.862;9.908;2024-03-02T05:52:58;97224.59;;;4.10;85.36
64876;BME280;51369;49.862;9.908;2024-03-02T05:55:24;97228.25;;;4.08;84.66
64876;BME280;51369;49.862;9.908;2024-03-02T05:57:49;97231.84;;;4.07;85.27
64876;BME280;51369;49.862;9.908;2024-03-02T06:00:32;97231.78;;;4.08;85.61
64876;BME280;51369;49.862;9.908;2024-03-02T06:02:57;97232.72;;;4.07;85.38
64876;BME280;51369;49.862;9.908;2024-03-02T06:05:23;97232.75;;;4.06;84.89
64876;BME280;51369;49.862;9.908;2024-03-02T06:07:48;97224.88;;;4.03;85.33
64876;BME280;51369;49.862;9.908;2024-03-02T06:10:14;97230.25;;;4.01;85.39
64876;BME280;51369;49.862;9.908;2024-03-02T06:12:39;97231.19;;;4.00;84.87
64876;BME280;51369;49.862;9.908;2024-03-02T06:15:05;97224.97;;;4.00;84.86
64876;BME280;51369;49.862;9.908;2024-03-02T06:17:31;97225.91;;;3.99;85.87
64876;BME280;51369;49.862;9.908;2024-03-02T06:19:56;97226.72;;;4.01;85.45
64876;BME280;51369;49.862;9.908;2024-03-02T06:22:21;97223.81;;;4.07;86.45
64876;BME280;51369;49.862;9.908;2024-03-02T06:24:51;97216.47;;;4.13;86.06
64876;BME280;51369;49.862;9.908;2024-03-02T06:27:16;97219.09;;;4.15;85.66
64876;BME280;51369;49.862;9.908;2024-03-02T06:29:42;97229.72;;;4.16;86.16
64876;BME280;51369;49.862;9.908;2024-03-02T06:32:07;97215.16;;;4.25;86.16
64876;BME280;51369;49.862;9.908;2024-03-02T06:34:33;97207.16;;;4.48;88.35
64876;BME280;51369;49.862;9.908;2024-03-02T06:36:58;97222.19;;;4.76;89.50
64876;BME280;51369;49.862;9.908;2024-03-02T06:39:23;97228.91;;;4.86;88.74
64876;BME280;51369;49.862;9.908;2024-03-02T06:41:49;97224.44;;;4.86;86.75
64876;BME280;51369;49.862;9.908;2024-03-02T06:44:15;97222.41;;;4.93;87.11
64876;BME280;51369;49.862;9.908;2024-03-02T06:46:40;97237.16;;;5.03;86.68
64876;BME280;51369;49.862;9.908;2024-03-02T06:49:06;97234.13;;;5.12;86.94
64876;BME280;51369;49.862;9.908;2024-03-02T06:51:31;97234.81;;;5.17;87.28
64876;BME280;51369;49.862;9.908;2024-03-02T06:53:56;97234.66;;;5.20;86.92
64876;BME280;51369;49.862;9.908;2024-03-02T06:56:22;97239.03;;;5.23;86.33
64876;BME280;51369;49.862;9.908;2024-03-02T06:58:47;97250.47;;;5.27;86.22
64876;BME280;51369;49.862;9.908;2024-03-02T07:01:13;97258.31;;;5.31;85.70
64876;BME280;51369;49.862;9.908;2024-03-02T07:03:38;97256.28;;;5.38;85.84
64876;BME280;51369;49.862;9.908;2024-03-02T07:06:07;97265.81;;;5.45;86.54
64876;BME280;51369;49.862;9.908;2024-03-02T07:08:32;97261.88;;;5.53;85.89
64876;BME280;51369;49.862;9.908;2024-03-02T07:10:58;97264.13;;;5.64;87.04
64876;BME280;51369;49.862;9.908;2024-03-02T07:13:24;97264.50;;;5.77;87.37
64876;BME280;51369;49.862;9.908;2024-03-02T07:15:49;97266.72;;;5.87;87.85
64876;BME280;51369;49.862;9.908;2024-03-02T07:18:32;97263.50;;;6.01;87.02
64876;BME280;51369;49.862;9.908;2024-03-02T07:21:07;97268.41;;;6.12;87.35
64876;BME280;51369;49.862;9.908;2024-03-02T07:23:32;97269.75;;;6.22;87.65
64876;BME280;51369;49.862;9.908;2024-03-02T07:25:58;97272.84;;;6.33;87.56
64876;BME280;51369;49.862;9.908;2024-03-02T07:28:25;97262.47;;;6.46;88.08
64876;BME280;51369;49.862;9.908;2024-03-02T07:31:01;97265.41;;;6.60;87.87
64876;BME280;51369;49.862;9.908;2024-03-02T07:33:26;97262.09;;;6.74;88.02
64876;BME280;51369;49.862;9.908;2024-03-02T07:35:52;97268.59;;;6.89;88.40
64876;BME280;51369;49.862;9.908;2024-03-02T07:38:18;97262.56;;;7.02;87.90
64876;BME280;51369;49.862;9.908;2024-03-02T07:40:44;97268.22;;;7.15;88.03
64876;BME280;51369;49.862;9.908;2024-03-02T07:43:09;97270.41;;;7.26;87.97
64876;BME280;51369;49.862;9.908;2024-03-02T07:45:35;97260.97;;;7.36;87.44
64876;BME280;51369;49.862;9.908;2024-03-02T07:48:01;97263.22;;;7.45;86.75
64876;BME280;51369;49.862;9.908;2024-03-02T07:50:29;97263.56;;;7.56;86.31
64876;BME280;51369;49.862;9.908;2024-03-02T07:52:55;97260.38;;;7.67;86.44
64876;BME280;51369;49.862;9.908;2024-03-02T07:55:21;97266.00;;;7.79;86.13
64876;BME280;51369;49.862;9.908;2024-03-02T07:57:46;97262.72;;;7.92;86.23
64876;BME280;51369;49.862;9.908;2024-03-02T08:00:12;97266.53;;;8.05;86.11
64876;BME280;51369;49.862;9.908;2024-03-02T08:02:40;97268.69;;;8.15;85.20
64876;BME280;51369;49.862;9.908;2024-03-02T08:05:08;97272.56;;;8.27;85.17
64876;BME280;51369;49.862;9.908;2024-03-02T08:07:33;97264.13;;;8.35;83.86
64876;BME280;51369;49.862;9.908;2024-03-02T08:10:17;97263.66;;;8.44;83.11
64876;BME280;51369;49.862;9.908;2024-03-02T08:13:04;97264.06;;;8.54;82.64
64876;BME280;51369;49.862;9.908;2024-03-02T08:15:29;97260.00;;;8.62;82.87
64876;BME280;51369;49.862;9.908;2024-03-02T08:17:54;97262.34;;;8.68;82.08
64876;BME280;51369;49.862;9.908;2024-03-02T08:20:21;97278.00;;;8.77;81.59
64876;BME280;51369;49.862;9.908;2024-03-02T08:22:46;97261.44;;;8.85;81.66
64876;BME280;51369;49.862;9.908;2024-03-02T08:25:12;97266.34;;;8.94;81.25
64876;BME280;51369;49.862;9.908;2024-03-02T08:27:37;97264.88;;;9.04;81.61
64876;BME280;51369;49.862;9.908;2024-03-02T08:30:04;97269.84;;;9.12;81.29
64876;BME280;51369;49.862;9.908;2024-03-02T08:32:31;97273.88;;;9.21;80.72
64876;BME280;51369;49.862;9.908;2024-03-02T08:34:56;97270.66;;;9.30;81.04
64876;BME280;51369;49.862;9.908;2024-03-02T08:37:22;97266.69;;;9.37;80.53
64876;BME280;51369;49.862;9.908;2024-03-02T08:39:47;97268.78;;;9.48;80.25
64876;BME280;51369;49.862;9.908;2024-03-02T08:42:12;97264.88;;;9.53;80.17
64876;BME280;51369;49.862;9.908;2024-03-02T08:44:38;97263.56;;;9.60;80.04
64876;BME280;51369;49.862;9.908;2024-03-02T08:47:04;97257.66;;;9.69;79.41
64876;BME280;51369;49.862;9.908;2024-03-02T08:49:29;97260.88;;;9.76;79.14
64876;BME280;51369;49.862;9.908;2024-03-02T08:51:55;97263.13;;;9.84;79.05
64876;BME280;51369;49.862;9.908;2024-03-02T08:54:21;97258.16;;;9.92;78.61
64876;BME280;51369;49.862;9.908;2024-03-02T08:56:48;97261.28;;;10.00;78.72
64876;BME280;51369;49.862;9.908;2024-03-02T08:59:14;97261.72;;;10.08;77.85
64876;BME280;51369;49.862;9.908;2024-03-02T09:01:40;97264.91;;;10.15;77.08
64876;BME280;51369;49.862;9.908;2024-03-02T09:04:07;97257.47;;;10.20;77.17
64876;BME280;51369;49.862;9.908;2024-03-02T09:06:34;97263.38;;;10.26;76.97
64876;BME280;51369;49.862;9.908;2024-03-02T09:08:59;97262.03;;;10.33;77.07
64876;BME280;51369;49.862;9.908;2024-03-02T09:11:25;97269.78;;;10.39;76.75
64876;BME280;51369;49.862;9.908;2024-03-02T09:13:50;97271.09;;;10.47;76.66
64876;BME280;51369;49.862;9.908;2024-03-02T09:16:16;97278.84;;;10.53;75.69
64876;BME280;51369;49.862;9.908;2024-03-02T09:18:41;97274.81;;;10.60;76.28
64876;BME280;51369;49.862;9.908;2024-03-02T09:21:07;97278.88;;;10.67;75.50
64876;BME280;51369;49.862;9.908;2024-03-02T09:23:33;97280.25;;;10.74;75.82
64876;BME280;51369;49.862;9.908;2024-03-02T09:25:59;97278.13;;;10.79;74.98
64876;BME280;51369;49.862;9.908;2024-03-02T09:28:24;97275.06;;;10.85;74.82
64876;BME280;51369;49.862;9.908;2024-03-02T09:30:49;97272.06;;;10.90;74.33
64876;BME280;51369;49.862;9.908;2024-03-02T09:33:15;97270.72;;;10.97;74.93
64876;BME280;51369;49.862;9.908;2024-03-02T09:35:40;97270.25;;;11.04;73.66
64876;BME280;51369;49.862;9.908;2024-03-02T09:38:05;97273.84;;;11.05;73.93
64876;BME280;51369;49.862;9.908;2024-03-02T09:40:31;97276.44;;;11.06;73.95
64876;BME280;51369;49.862;9.908;2024-03-02T09:42:57;97277.22;;;11.08;73.63
64876;BME280;51369;49.862;9.908;2024-03-02T09:45:24;97279.81;;;11.10;73.68
64876;BME280;51369;49.862;9.908;2024-03-02T09:47:50;97278.94;;;11.09;73.50
64876;BME280;51369;49.862;9.908;2024-03-02T09:50:15;97271.72;;;11.10;72.82
64876;BME280;51369;49.862;9.908;2024-03-02T09:52:42;97272.59;;;11.11;73.29
64876;BME280;51369;49.862;9.908;2024-03-02T09:55:08;97278.75;;;11.13;73.09
64876;BME280;51369;49.862;9.908;2024-03-02T09:57:34;97274.22;;;11.13;72.95
64876;BME280;51369;49.862;9.908;2024-03-02T09:59:59;97273.06;;;11.17;73.52
64876;BME280;51369;49.862;9.908;2024-03-02T10:02:26;97272.00;;;11.20;73.02
64876;BME280;51369;49.862;9.908;2024-03-02T10:04:51;97270.06;;;11.22;72.89
64876;BME280;51369;49.862;9.908;2024-03-02T10:07:18;97266.41;;;11.23;72.86
64876;BME280;51369;49.862;9.908;2024-03-02T10:09:48;97269.88;;;11.25;72.73
64876;BME280;51369;49.862;9.908;2024-03-02T10:12:15;97270.56;;;11.28;72.53
64876;BME280;51369;49.862;9.908;2024-03-02T10:14:41;97264.88;;;11.33;72.61
64876;BME280;51369;49.862;9.908;2024-03-02T10:17:13;97263.69;;;11.37;72.40
64876;BME280;51369;49.862;9.908;2024-03-02T10:19:40;97262.16;;;11.47;72.69
64876;BME280;51369;49.862;9.908;2024-03-02T10:22:08;97259.81;;;11.55;72.55
64876;BME280;51369;49.862;9.908;2024-03-02T10:24:41;97262.81;;;11.65;72.17
64876;BME280;51369;49.862;9.908;2024-03-02T10:27:18;97260.56;;;11.71;72.36
64876;BME280;51369;49.862;9.908;2024-03-02T10:29:47;97261.94;;;11.79;72.09
64876;BME280;51369;49.862;9.908;2024-03-02T10:32:13;97250.81;;;11.83;71.66
64876;BME280;51369;49.862;9.908;2024-03-02T10:34:42;97249.75;;;11.86;70.67
64876;BME280;51369;49.862;9.908;2024-03-02T10:37:08;97250.13;;;11.94;71.14
64876;BME280;51369;49.862;9.908;2024-03-02T10:39:35;97257.81;;;12.00;70.51
64876;BME280;51369;49.862;9.908;2024-03-02T10:42:02;97251.03;;;12.07;70.84
64876;BME280;51369;49.862;9.908;2024-03-02T10:44:28;97255.03;;;12.14;70.56
64876;BME280;51369;49.862;9.908;2024-03-02T10:46:55;97254.84;;;12.17;70.09
64876;BME280;51369;49.862;9.908;2024-03-02T10:49:22;97245.44;;;12.23;69.22
64876;BME280;51369;49.862;9.908;2024-03-02T10:51:48;97246.00;;;12.28;69.82
64876;BME280;51369;49.862;9.908;2024-03-02T10:54:14;97241.81;;;12.36;69.48
64876;BME280;51369;49.862;9.908;2024-03-02T10:56:41;97245.94;;;12.42;69.30
64876;BME280;51369;49.862;9.908;2024-03-02T11:01:59;97241.97;;;12.60;68.45
64876;BME280;51369;49.862;9.908;2024-03-02T11:04:27;97240.69;;;12.66;68.35
64876;BME280;51369;49.862;9.908;2024-03-02T11:06:59;97240.16;;;12.74;67.73
64876;BME280;51369;49.862;9.908;2024-03-02T11:09:28;97234.75;;;12.86;68.08
64876;BME280;51369;49.862;9.908;2024-03-02T11:12:06;97236.59;;;12.98;67.79
64876;BME280;51369;49.862;9.908;2024-03-02T11:14:37;97244.84;;;13.10;67.43
64876;BME280;51369;49.862;9.908;2024-03-02T11:17:06;97243.22;;;13.20;67.27
64876;BME280;51369;49.862;9.908;2024-03-02T11:19:32;97229.78;;;13.31;66.71
64876;BME280;51369;49.862;9.908;2024-03-02T11:21:59;97232.38;;;13.45;66.81
64876;BME280;51369;49.862;9.908;2024-03-02T11:26:58;97235.44;;;13.77;65.67
64876;BME280;51369;49.862;9.908;2024-03-02T11:32:03;97234.03;;;13.95;65.24
64876;BME280;51369;49.862;9.908;2024-03-02T11:34:33;97219.16;;;14.01;64.25
64876;BME280;51369;49.862;9.908;2024-03-02T11:36:59;97215.22;;;14.05;63.55
64876;BME280;51369;49.862;9.908;2024-03-02T11:39:27;97220.19;;;14.11;62.96
64876;BME280;51369;49.862;9.908;2024-03-02T11:41:53;97209.97;;;14.15;62.24
64876;BME280;51369;49.862;9.908;2024-03-02T11:44:18;97209.28;;;14.24;62.34
64876;BME280;51369;49.862;9.908;2024-03-02T11:47:00;97201.06;;;14.37;62.71
64876;BME280;51369;49.862;9.908;2024-03-02T11:49:37;97201.25;;;14.46;61.59
64876;BME280;51369;49.862;9.908;2024-03-02T11:52:04;97197.22;;;14.52;61.82
64876;BME280;51369;49.862;9.908;2024-03-02T11:54:32;97194.03;;;14.58;61.65
64876;BME280;51369;49.862;9.908;2024-03-02T11:57:01;97188.00;;;14.65;60.67
64876;BME280;51369;49.862;9.908;2024-03-02T11:59:28;97184.66;;;14.73;61.31
64876;BME280;51369;49.862;9.908;2024-03-02T12:01:54;97181.59;;;14.78;60.45
64876;BME280;51369;49.862;9.908;2024-03-02T12:04:19;97178.03;;;14.88;60.87
64876;BME280;51369;49.862;9.908;2024-03-02T12:06:45;97170.88;;;14.98;60.67
64876;BME280;51369;49.862;9.908;2024-03-02T12:09:12;97172.38;;;15.03;59.64
64876;BME280;51369;49.862;9.908;2024-03-02T12:11:37;97162.97;;;15.07;59.32
64876;BME280;51369;49.862;9.908;2024-03-02T12:14:02;97154.47;;;15.11;58.77
64876;BME280;51369;49.862;9.908;2024-03-02T12:16:29;97161.88;;;15.20;60.34
64876;BME280;51369;49.862;9.908;2024-03-02T12:18:55;97161.63;;;15.23;59.30
64876;BME280;51369;49.862;9.908;2024-03-02T12:21:20;97156.69;;;15.28;58.42
64876;BME280;51369;49.862;9.908;2024-03-02T12:23:46;97151.50;;;15.37;58.17
64876;BME280;51369;49.862;9.908;2024-03-02T12:26:11;97148.88;;;15.46;58.59
64876;BME280;51369;49.862;9.908;2024-03-02T12:28:36;97146.78;;;15.50;57.56
64876;BME280;51369;49.862;9.908;2024-03-02T12:31:02;97139.97;;;15.55;58.55
64876;BME280;51369;49.862;9.908;2024-03-02T12:33:28;97138.88;;;15.58;57.90
64876;BME280;51369;49.862;9.908;2024-03-02T12:35:54;97133.53;;;15.56;56.81
64876;BME280;51369;49.862;9.908;2024-03-02T12:38:19;97133.16;;;15.61;57.91
64876;BME280;51369;49.862;9.908;2024-03-02T12:40:48;97130.91;;;15.66;58.00
64876;BME280;51369;49.862;9.908;2024-03-02T12:43:13;97128.81;;;15.70;57.51
64876;BME280;51369;49.862;9.908;2024-03-02T12:45:39;97125.84;;;15.73;57.49
64876;BME280;51369;49.862;9.908;2024-03-02T12:48:04;97122.00;;;15.75;56.35
64876;BME280;51369;49.862;9.908;2024-03-02T12:50:30;97118.03;;;15.79;56.35
64876;BME280;51369;49.862;9.908;2024-03-02T12:52:56;97122.34;;;15.82;55.97
64876;BME280;51369;49.862;9.908;2024-03-02T12:55:22;97122.81;;;15.87;57.06
64876;BME280;51369;49.862;9.908;2024-03-02T12:57:49;97114.88;;;15.95;57.32
64876;BME280;51369;49.862;9.908;2024-03-02T13:00:18;97108.19;;;15.99;56.96
64876;BME280;51369;49.862;9.908;2024-03-02T13:02:45;97099.50;;;16.05;56.84
64876;BME280;51369;49.862;9.908;2024-03-02T13:05:11;97099.22;;;16.08;56.93
64876;BME280;51369;49.862;9.908;2024-03-02T13:07:37;97094.38;;;16.12;56.58
64876;BME280;51369;49.862;9.908;2024-03-02T13:10:04;97090.53;;;16.14;56.65
64876;BME280;51369;49.862;9.908;2024-03-02T13:12:30;97090.81;;;16.11;55.72